createdAt,value
2023-01-02T00:02:02.268Z,149.85
2023-01-02T00:04:30.080Z,151.90
2023-01-02T00:06:57.877Z,146.52
2023-01-02T00:09:26.925Z,146.63
2023-01-02T00:11:54.618Z,163.05
2023-01-02T00:14:22.360Z,184.68
2023-01-02T00:16:50.154Z,162.23
2023-01-02T00:19:17.862Z,172.15
2023-01-02T00:21:45.553Z,172.57
2023-01-02T00:24:13.555Z,160.90
2023-01-02T00:26:42.666Z,158.85
2023-01-02T00:29:10.507Z,161.43
2023-01-02T00:31:38.224Z,150.27
2023-01-02T00:34:06.242Z,170.75
2023-01-02T00:36:33.883Z,163.15
2023-01-02T00:39:01.664Z,162.10
2023-01-02T00:41:29.374Z,155.43
2023-01-02T00:43:58.401Z,147.73
2023-01-02T00:46:26.246Z,153.15
2023-01-02T00:48:53.954Z,143.73
2023-01-02T00:51:21.588Z,148.82
2023-01-02T00:53:49.337Z,142.50
2023-01-02T00:56:17.001Z,136.32
2023-01-02T00:58:44.857Z,149.57
2023-01-02T01:01:14.116Z,128.98
2023-01-02T01:03:43.823Z,140.63
2023-01-02T01:06:12.270Z,137.95
2023-01-02T01:08:40.101Z,129.77
2023-01-02T01:11:08.306Z,123.82
2023-01-02T01:13:36.406Z,122.30
2023-01-02T01:16:05.647Z,124.10
2023-01-02T01:18:35.499Z,133.43
2023-01-02T01:21:07.239Z,128.25
2023-01-02T01:23:34.944Z,119.65
2023-01-02T01:26:05.167Z,126.35
2023-01-02T01:28:32.938Z,126.57
2023-01-02T01:31:04.492Z,118.55
2023-01-02T01:33:32.569Z,119.72
2023-01-02T01:36:06.576Z,119.53
2023-01-02T01:38:34.637Z,122.97
2023-01-02T01:41:03.084Z,115.65
2023-01-02T01:43:38.864Z,127.30
2023-01-02T01:46:10.480Z,121.38
2023-01-02T01:48:38.637Z,119.57
2023-01-02T01:51:07.963Z,117.60
2023-01-02T01:53:36.124Z,105.97
2023-01-02T01:56:07.913Z,110.82
2023-01-02T01:58:39.291Z,112.00
2023-01-02T02:01:07.235Z,112.53
2023-01-02T02:03:37.121Z,115.28
2023-01-02T02:06:07.075Z,103.80
2023-01-02T02:08:38.834Z,107.90
2023-01-02T02:11:06.941Z,100.40
2023-01-02T02:13:35.410Z,107.68
2023-01-02T02:16:13.966Z,102.10
2023-01-02T02:18:58.761Z,103.50
2023-01-02T02:21:51.603Z,103.22
2023-01-02T02:24:46.331Z,99.30
2023-01-02T02:27:40.013Z,101.97
2023-01-02T02:30:15.823Z,101.85
2023-01-02T02:33:02.711Z,107.05
2023-01-02T02:35:43.876Z,105.20
2023-01-02T02:38:20.464Z,105.80
2023-01-02T02:40:56.810Z,97.75
2023-01-02T02:43:36.242Z,101.50
2023-01-02T02:46:11.500Z,102.53
2023-01-02T02:48:48.243Z,101.65
2023-01-02T02:51:21.795Z,99.50
2023-01-02T02:53:55.839Z,106.80
2023-01-02T02:56:25.965Z,103.40
2023-01-02T02:58:54.180Z,105.25
2023-01-02T03:01:30.989Z,97.95
2023-01-02T03:03:59.132Z,96.80
2023-01-02T03:06:45.089Z,99.80
2023-01-02T03:09:21.325Z,92.35
2023-01-02T03:11:56.158Z,105.25
2023-01-02T03:14:34.196Z,98.28
2023-01-02T03:17:06.928Z,97.10
2023-01-02T03:19:40.871Z,84.95
2023-01-02T03:22:13.539Z,93.90
2023-01-02T03:24:44.114Z,94.53
2023-01-02T03:27:16.129Z,91.88
2023-01-02T03:29:48.451Z,96.18
2023-01-02T03:32:24.432Z,87.25
2023-01-02T03:34:53.975Z,94.90
2023-01-02T03:37:26.540Z,86.35
2023-01-02T03:39:58.691Z,94.72
2023-01-02T03:42:29.347Z,93.90
2023-01-02T03:45:03.792Z,92.25
2023-01-02T03:47:39.840Z,87.05
2023-01-02T03:50:13.132Z,83.85
2023-01-02T03:52:41.189Z,81.65
2023-01-02T03:55:10.381Z,93.35
2023-01-02T03:57:57.001Z,89.30
2023-01-02T04:00:36.068Z,85.45
2023-01-02T04:03:10.967Z,83.57
2023-01-02T04:05:44.599Z,87.25
2023-01-02T04:08:17.661Z,88.55
2023-01-02T04:10:50.760Z,79.63
2023-01-02T04:13:27.543Z,79.28
2023-01-02T04:15:56.671Z,84.45
2023-01-02T04:18:30.454Z,83.18
2023-01-02T04:21:02.001Z,84.95
2023-01-02T04:23:36.849Z,84.70
2023-01-02T04:26:09.651Z,77.82
2023-01-02T04:28:37.710Z,86.57
2023-01-02T04:31:10.665Z,84.63
2023-01-02T04:33:45.817Z,87.30
2023-01-02T04:36:15.823Z,71.03
2023-01-02T04:38:44.836Z,80.35
2023-01-02T04:41:16.178Z,85.97
2023-01-02T04:43:43.969Z,85.00
2023-01-02T04:46:11.967Z,85.35
2023-01-02T04:48:41.011Z,91.63
2023-01-02T04:51:08.681Z,88.85
2023-01-02T04:53:36.331Z,87.70
2023-01-02T04:56:04.174Z,86.55
2023-01-02T04:58:31.862Z,94.78
2023-01-02T05:00:59.977Z,93.28
2023-01-02T05:03:27.704Z,90.88
2023-01-02T05:06:01.980Z,90.55
2023-01-02T05:08:30.385Z,88.78
2023-01-02T05:10:58.717Z,87.57
2023-01-02T05:13:26.382Z,83.35
2023-01-02T05:15:55.894Z,83.97
2023-01-02T05:18:23.572Z,84.35
2023-01-02T05:20:51.242Z,86.75
2023-01-02T05:23:37.638Z,85.88
2023-01-02T05:26:11.356Z,85.38
2023-01-02T05:28:39.027Z,86.15
2023-01-02T05:31:06.812Z,75.47
2023-01-02T05:33:36.022Z,82.32
2023-01-02T05:36:05.780Z,83.65
2023-01-02T05:38:35.307Z,83.22
2023-01-02T05:41:04.614Z,82.63
2023-01-02T05:43:33.150Z,89.85
2023-01-02T05:46:07.907Z,80.97
2023-01-02T05:48:35.914Z,80.07
2023-01-02T05:51:03.910Z,77.25
2023-01-02T05:53:31.793Z,78.00
2023-01-02T05:56:06.580Z,79.80
2023-01-02T05:58:35.228Z,80.20
2023-01-02T06:01:07.327Z,78.53
2023-01-02T06:03:35.574Z,75.65
2023-01-02T06:06:04.646Z,74.10
2023-01-02T06:08:32.350Z,77.25
2023-01-02T06:11:00.045Z,87.10
2023-01-02T06:13:30.980Z,79.78
2023-01-02T06:16:00.031Z,71.05
2023-01-02T06:18:27.811Z,75.75
2023-01-02T06:20:59.952Z,77.28
2023-01-02T06:23:27.776Z,83.60
2023-01-02T06:25:55.929Z,71.53
2023-01-02T06:28:23.695Z,83.22
2023-01-02T06:30:52.706Z,78.35
2023-01-02T06:33:20.741Z,78.57
2023-01-02T06:35:48.368Z,81.32
2023-01-02T06:38:15.986Z,73.10
2023-01-02T06:40:53.289Z,80.43
2023-01-02T06:43:20.988Z,83.38
2023-01-02T06:45:48.792Z,71.60
2023-01-02T06:48:18.411Z,81.88
2023-01-02T06:50:47.183Z,70.70
2023-01-02T06:53:14.839Z,67.05
2023-01-02T06:55:51.965Z,78.57
2023-01-02T06:58:19.808Z,70.70
2023-01-02T07:00:47.543Z,72.63
2023-01-02T07:03:15.644Z,72.07
2023-01-02T07:05:45.102Z,76.90
2023-01-02T07:08:13.608Z,71.32
2023-01-02T07:10:41.267Z,74.53
2023-01-02T07:13:08.954Z,76.65
2023-01-02T07:15:36.648Z,74.40
2023-01-02T07:18:04.518Z,71.18
2023-01-02T07:20:32.231Z,75.70
2023-01-02T07:23:01.398Z,75.55
2023-01-02T07:25:29.254Z,75.32
2023-01-02T07:27:57.215Z,71.57
2023-01-02T07:30:24.861Z,69.32
2023-01-02T07:32:54.122Z,74.47
2023-01-02T07:35:22.039Z,78.78
2023-01-02T07:37:49.870Z,78.82
2023-01-02T07:40:18.972Z,79.85
2023-01-02T07:42:46.606Z,77.75
2023-01-02T07:45:14.347Z,66.05
2023-01-02T07:47:42.018Z,80.07
2023-01-02T07:50:09.979Z,71.50
2023-01-02T07:52:38.076Z,72.03
2023-01-02T07:55:06.665Z,69.13
2023-01-02T07:57:35.774Z,78.55
2023-01-02T08:00:04.182Z,76.28
2023-01-02T08:02:39.823Z,74.75
2023-01-02T08:05:08.157Z,79.18
2023-01-02T08:07:40.904Z,74.65
2023-01-02T08:10:12.603Z,72.28
2023-01-02T08:12:41.663Z,77.63
2023-01-02T08:15:09.872Z,73.97
2023-01-02T08:17:37.587Z,71.82
2023-01-02T08:20:08.223Z,75.53
2023-01-02T08:22:36.230Z,71.53
2023-01-02T08:25:04.104Z,77.25
2023-01-02T08:27:31.901Z,79.93
2023-01-02T08:30:01.027Z,79.88
2023-01-02T08:32:28.731Z,66.85
2023-01-02T08:34:56.418Z,73.95
2023-01-02T08:37:25.181Z,75.88
2023-01-02T08:39:52.842Z,71.85
2023-01-02T08:42:20.556Z,84.50
2023-01-02T08:44:48.237Z,75.55
2023-01-02T08:47:17.402Z,82.70
2023-01-02T08:49:45.152Z,73.32
2023-01-02T08:52:12.881Z,76.63
2023-01-02T08:54:40.576Z,78.07
2023-01-02T08:57:08.193Z,73.32
2023-01-02T08:59:35.861Z,79.18
2023-01-02T09:02:04.039Z,75.07
2023-01-02T09:04:33.210Z,65.95
2023-01-02T09:07:00.872Z,78.20
2023-01-02T09:09:28.653Z,72.22
2023-01-02T09:11:57.062Z,76.00
2023-01-02T09:14:24.906Z,70.97
2023-01-02T09:16:53.205Z,72.78
2023-01-02T09:19:20.880Z,73.63
2023-01-02T09:21:50.392Z,77.28
2023-01-02T09:24:18.015Z,72.20
2023-01-02T09:26:46.097Z,81.75
2023-01-02T09:29:15.310Z,69.93
2023-01-02T09:31:43.734Z,74.47
2023-01-02T09:34:11.747Z,79.75
2023-01-02T09:36:39.698Z,82.20
2023-01-02T09:39:10.628Z,73.75
2023-01-02T09:41:40.410Z,72.13
2023-01-02T09:44:14.511Z,82.28
2023-01-02T09:46:48.983Z,70.25
2023-01-02T09:49:19.600Z,75.40
2023-01-02T09:51:48.090Z,76.85
2023-01-02T09:54:22.840Z,72.13
2023-01-02T09:56:58.224Z,73.32
2023-01-02T09:59:32.995Z,79.15
2023-01-02T10:02:10.307Z,77.13
2023-01-02T10:04:56.728Z,79.50
2023-01-02T10:07:29.836Z,85.40
2023-01-02T10:10:03.769Z,77.35
2023-01-02T10:12:38.782Z,76.28
2023-01-02T10:15:13.455Z,82.00
2023-01-02T10:17:47.132Z,75.95
2023-01-02T10:20:25.856Z,80.15
2023-01-02T10:22:58.129Z,86.68
2023-01-02T10:25:32.093Z,85.07
2023-01-02T10:28:03.528Z,86.60
2023-01-02T10:30:37.555Z,86.15
2023-01-02T10:33:13.371Z,86.38
2023-01-02T10:35:44.198Z,80.13
2023-01-02T10:38:13.150Z,87.80
2023-01-02T10:40:44.594Z,90.13
2023-01-02T10:43:12.914Z,86.80
2023-01-02T10:45:40.705Z,86.15
2023-01-02T10:48:10.774Z,96.00
2023-01-02T10:50:42.459Z,91.10
2023-01-02T10:53:20.777Z,100.80
2023-01-02T10:55:50.208Z,96.38
2023-01-02T10:58:22.744Z,95.15
2023-01-02T11:00:51.609Z,91.97
2023-01-02T11:03:23.319Z,99.65
2023-01-02T11:05:53.709Z,98.80
2023-01-02T11:08:24.364Z,100.05
2023-01-02T11:10:53.347Z,96.72
2023-01-02T11:13:22.829Z,108.10
2023-01-02T11:15:57.073Z,106.50
2023-01-02T11:18:28.156Z,115.75
2023-01-02T11:21:03.890Z,121.60
2023-01-02T11:23:35.723Z,124.72
2023-01-02T11:26:06.154Z,130.45
2023-01-02T11:28:36.226Z,140.10
2023-01-02T11:31:07.277Z,162.98
2023-01-02T11:33:35.975Z,163.00
2023-01-02T11:36:16.710Z,171.40
2023-01-02T11:38:46.299Z,193.27
2023-01-02T11:41:48.229Z,182.77
2023-01-02T11:44:20.962Z,199.55
2023-01-02T11:46:49.530Z,201.32
2023-01-02T11:49:20.921Z,200.10
2023-01-02T11:51:54.807Z,190.45
2023-01-02T11:54:26.922Z,207.40
2023-01-02T11:56:56.149Z,189.80
2023-01-02T11:59:28.359Z,202.30
2023-01-02T12:02:01.617Z,207.07
2023-01-02T12:04:30.873Z,208.30
2023-01-02T12:07:25.771Z,203.65
2023-01-02T12:10:00.410Z,212.60
2023-01-02T12:12:55.537Z,206.82
2023-01-02T12:15:50.066Z,204.93
2023-01-02T12:18:32.616Z,202.93
2023-01-02T12:21:07.949Z,207.73
2023-01-02T12:23:58.283Z,201.98
2023-01-02T12:26:32.040Z,205.52
2023-01-02T12:29:47.335Z,226.00
2023-01-02T12:32:41.082Z,209.30
2023-01-02T12:35:27.917Z,224.48
2023-01-02T12:37:57.543Z,228.32
2023-01-02T12:40:43.382Z,247.48
2023-01-02T12:43:30.276Z,277.35
2023-01-02T12:46:12.315Z,296.35
2023-01-02T12:48:56.609Z,317.90
2023-01-02T12:51:29.702Z,338.00
2023-01-02T12:54:19.699Z,334.45
2023-01-02T12:56:56.286Z,306.67
2023-01-02T12:59:43.513Z,313.52
2023-01-02T13:02:26.824Z,310.42
2023-01-02T13:04:58.664Z,324.70
2023-01-02T13:07:32.986Z,347.23
2023-01-02T13:10:03.821Z,373.83
2023-01-02T13:12:33.798Z,378.33
2023-01-02T13:15:08.336Z,362.02
2023-01-02T13:17:46.808Z,379.10
2023-01-02T13:20:25.514Z,350.33
2023-01-02T13:23:04.951Z,365.15
2023-01-02T13:25:33.923Z,363.90
2023-01-02T13:28:05.876Z,341.13
2023-01-02T13:30:45.070Z,351.85
2023-01-02T13:33:28.953Z,345.92
2023-01-02T13:35:56.648Z,328.23
2023-01-02T13:38:30.028Z,357.67
2023-01-02T13:41:00.244Z,355.13
2023-01-02T13:43:30.552Z,373.80
2023-01-02T13:45:59.200Z,362.13
2023-01-02T13:48:34.087Z,355.85
2023-01-02T13:51:04.518Z,364.92
2023-01-02T13:53:44.081Z,385.25
2023-01-02T13:56:13.547Z,353.40
2023-01-02T13:58:53.563Z,356.02
2023-01-02T14:02:15.356Z,366.55
2023-01-02T14:04:44.693Z,341.65
2023-01-02T14:07:56.925Z,368.25
2023-01-02T14:10:34.614Z,326.73
2023-01-02T14:13:13.222Z,369.48
2023-01-02T14:16:08.084Z,346.30
2023-01-02T14:18:38.564Z,356.13
2023-01-02T14:21:11.591Z,376.25
2023-01-02T14:24:18.563Z,363.77
2023-01-02T14:26:35.429Z,376.02
2023-01-02T14:29:11.383Z,364.27
2023-01-02T14:31:39.722Z,354.35
2023-01-02T14:34:07.683Z,383.33
2023-01-02T14:36:43.223Z,344.92
2023-01-02T14:39:20.720Z,351.00
2023-01-02T14:42:48.429Z,353.90
2023-01-02T14:45:20.181Z,361.92
2023-01-02T14:47:52.742Z,348.13
2023-01-02T14:50:24.433Z,365.00
2023-01-02T14:53:00.825Z,368.48
2023-01-02T14:55:35.391Z,356.27
2023-01-02T14:58:17.434Z,363.27
2023-01-02T15:00:48.532Z,356.75
2023-01-02T15:03:26.848Z,352.80
2023-01-02T15:06:00.722Z,377.38
2023-01-02T15:08:38.312Z,368.77
2023-01-02T15:11:35.155Z,361.83
2023-01-02T15:14:05.462Z,356.42
2023-01-02T15:16:41.053Z,368.85
2023-01-02T15:19:17.311Z,374.25
2023-01-02T15:21:44.927Z,383.23
2023-01-02T15:24:21.051Z,387.45
2023-01-02T15:26:48.937Z,400.58
2023-01-02T15:29:26.322Z,390.30
2023-01-02T15:31:55.956Z,379.65
2023-01-02T15:34:29.381Z,370.20
2023-01-02T15:36:59.302Z,405.98
2023-01-02T15:39:33.990Z,392.45
2023-01-02T15:42:09.778Z,382.77
2023-01-02T15:45:06.185Z,385.95
2023-01-02T15:47:33.947Z,397.73
2023-01-02T15:50:06.622Z,373.33
2023-01-02T15:52:34.623Z,394.17
2023-01-02T15:55:04.109Z,393.25
2023-01-02T15:57:32.934Z,363.50
2023-01-02T16:00:01.426Z,392.70
2023-01-02T16:02:34.881Z,380.35
2023-01-02T16:05:11.752Z,384.20
2023-01-02T16:07:40.270Z,388.23
2023-01-02T16:10:16.746Z,370.67
2023-01-02T16:12:44.591Z,362.20
2023-01-02T16:15:12.302Z,385.10
2023-01-02T16:17:40.983Z,357.25
2023-01-02T16:20:18.484Z,357.25
2023-01-02T16:22:49.785Z,353.45
2023-01-02T16:25:22.312Z,342.10
2023-01-02T16:27:53.652Z,333.75
2023-01-02T16:30:37.343Z,350.38
2023-01-02T16:33:20.691Z,337.65
2023-01-02T16:35:59.862Z,356.75
2023-01-02T16:38:28.786Z,336.75
2023-01-02T16:41:08.424Z,356.40
2023-01-02T16:43:43.158Z,333.65
2023-01-02T16:46:16.747Z,330.70
2023-01-02T16:48:45.098Z,335.83
2023-01-02T16:51:15.503Z,329.98
2023-01-02T16:53:45.566Z,342.77
2023-01-02T16:56:15.865Z,339.02
2023-01-02T16:58:43.716Z,340.25
2023-01-02T17:01:14.025Z,335.38
2023-01-02T17:03:42.494Z,331.40
2023-01-02T17:06:13.113Z,367.38
2023-01-02T17:08:41.606Z,344.08
2023-01-02T17:11:09.447Z,336.27
2023-01-02T17:13:38.475Z,320.30
2023-01-02T17:16:07.678Z,323.95
2023-01-02T17:18:35.375Z,328.48
2023-01-02T17:21:03.263Z,332.58
2023-01-02T17:23:31.096Z,330.65
2023-01-02T17:25:58.718Z,332.33
2023-01-02T17:28:27.314Z,339.27
2023-01-02T17:30:56.530Z,345.70
2023-01-02T17:33:24.558Z,333.73
2023-01-02T17:35:52.218Z,342.02
2023-01-02T17:38:20.460Z,330.33
2023-01-02T17:40:48.557Z,331.60
2023-01-02T17:43:16.367Z,329.20
2023-01-02T17:45:44.146Z,325.73
2023-01-02T17:48:16.235Z,334.90
2023-01-02T17:50:51.468Z,328.40
2023-01-02T17:53:19.109Z,331.40
2023-01-02T17:55:51.540Z,301.10
2023-01-02T17:58:39.162Z,304.83
2023-01-02T18:01:06.955Z,318.58
2023-01-02T18:03:36.361Z,319.85
2023-01-02T18:06:07.958Z,314.92
2023-01-02T18:08:37.745Z,324.25
2023-01-02T18:11:07.371Z,334.85
2023-01-02T18:13:39.226Z,320.75
2023-01-02T18:16:12.289Z,335.50
2023-01-02T18:18:42.093Z,298.75
2023-01-02T18:21:13.991Z,318.17
2023-01-02T18:23:42.053Z,326.88
2023-01-02T18:26:14.462Z,336.85
2023-01-02T18:28:50.363Z,329.90
2023-01-02T18:31:20.655Z,341.98
2023-01-02T18:33:51.142Z,327.05
2023-01-02T18:36:21.628Z,334.13
2023-01-02T18:38:51.119Z,319.20
2023-01-02T18:41:22.347Z,308.05
2023-01-02T18:43:54.024Z,316.33
2023-01-02T18:46:23.680Z,299.75
2023-01-02T18:48:54.498Z,331.63
2023-01-02T18:51:24.310Z,319.42
2023-01-02T18:53:54.353Z,314.48
2023-01-02T18:56:25.523Z,322.02
2023-01-02T18:59:00.945Z,312.48
2023-01-02T19:01:31.564Z,317.90
2023-01-02T19:04:24.382Z,323.27
2023-01-02T19:06:57.303Z,322.13
2023-01-02T19:09:30.974Z,326.40
2023-01-02T19:12:20.604Z,323.70
2023-01-02T19:14:56.499Z,316.27
2023-01-02T19:17:26.572Z,326.92
2023-01-02T19:19:56.579Z,301.95
2023-01-02T19:22:32.186Z,329.55
2023-01-02T19:25:06.065Z,311.00
2023-01-02T19:27:36.768Z,317.35
2023-01-02T19:30:09.047Z,315.27
2023-01-02T19:32:37.162Z,314.77
2023-01-02T19:35:54.254Z,323.35
2023-01-02T19:38:27.449Z,304.85
2023-01-02T19:40:55.509Z,293.67
2023-01-02T19:43:23.901Z,296.77
2023-01-02T19:45:52.807Z,316.63
2023-01-02T19:48:20.563Z,310.45
2023-01-02T19:50:49.944Z,301.02
2023-01-02T19:53:17.803Z,297.83
2023-01-02T19:55:45.578Z,305.42
2023-01-02T19:58:13.217Z,296.23
2023-01-02T20:00:40.990Z,298.93
2023-01-02T20:03:09.207Z,310.13
2023-01-02T20:05:36.947Z,303.35
2023-01-02T20:08:06.184Z,302.73
2023-01-02T20:10:33.975Z,309.17
2023-01-02T20:13:01.864Z,299.98
2023-01-02T20:15:29.811Z,311.80
2023-01-02T20:17:57.517Z,297.27
2023-01-02T20:20:29.474Z,293.00
2023-01-02T20:22:57.445Z,284.42
2023-01-02T20:25:26.834Z,310.02
2023-01-02T20:27:55.882Z,286.52
2023-01-02T20:30:25.777Z,299.50
2023-01-02T20:32:55.870Z,307.90
2023-01-02T20:35:23.660Z,299.60
2023-01-02T20:37:51.334Z,302.88
2023-01-02T20:40:18.969Z,305.75
2023-01-02T20:42:48.163Z,311.25
2023-01-02T20:45:15.805Z,317.52
2023-01-02T20:47:43.558Z,320.60
2023-01-02T20:50:11.239Z,325.60
2023-01-02T20:52:39.221Z,335.38
2023-01-02T20:55:07.861Z,292.05
2023-01-02T20:57:35.681Z,310.02
2023-01-02T21:00:09.481Z,313.38
2023-01-02T21:02:37.546Z,302.75
2023-01-02T21:05:05.904Z,317.73
2023-01-02T21:07:33.587Z,320.13
2023-01-02T21:10:01.321Z,298.25
2023-01-02T21:12:46.445Z,316.55
2023-01-02T21:15:29.590Z,289.95
2023-01-02T21:17:57.256Z,283.00
2023-01-02T21:20:24.865Z,300.15
2023-01-02T21:22:52.628Z,295.90
2023-01-02T21:25:20.342Z,321.77
2023-01-02T21:27:47.994Z,303.63
2023-01-02T21:30:17.114Z,286.98
2023-01-02T21:32:45.593Z,288.03
2023-01-02T21:35:13.315Z,282.45
2023-01-02T21:37:41.076Z,287.98
2023-01-02T21:40:09.750Z,288.80
2023-01-02T21:42:44.331Z,272.88
2023-01-02T21:45:12.418Z,295.47
2023-01-02T21:47:41.402Z,304.07
2023-01-02T21:50:10.188Z,267.07
2023-01-02T21:52:37.879Z,279.13
2023-01-02T21:55:06.515Z,278.60
2023-01-02T21:58:11.199Z,290.33
2023-01-02T22:00:23.949Z,284.20
2023-01-02T22:02:53.474Z,282.98
2023-01-02T22:05:22.376Z,278.57
2023-01-02T22:07:50.397Z,290.30
2023-01-02T22:10:18.493Z,272.53
2023-01-02T22:12:46.231Z,273.20
2023-01-02T22:15:13.978Z,277.53
2023-01-02T22:17:42.131Z,285.13
2023-01-02T22:20:12.373Z,271.70
2023-01-02T22:22:40.108Z,271.67
2023-01-02T22:25:08.974Z,282.53
2023-01-02T22:27:37.185Z,251.73
2023-01-02T22:30:29.276Z,281.30
2023-01-02T22:32:55.456Z,249.40
2023-01-02T22:35:24.550Z,263.50
2023-01-02T22:37:52.228Z,263.77
2023-01-02T22:40:20.279Z,279.03
2023-01-02T22:43:05.859Z,275.30
2023-01-02T22:45:41.677Z,238.07
2023-01-02T22:48:17.960Z,242.13
2023-01-02T22:50:48.715Z,257.00
2023-01-02T22:53:25.396Z,248.03
2023-01-02T22:55:53.391Z,260.33
2023-01-02T22:58:22.080Z,238.60
2023-01-02T23:00:55.678Z,259.53
2023-01-02T23:03:23.410Z,256.97
2023-01-02T23:05:52.456Z,247.80
2023-01-02T23:08:20.227Z,233.90
2023-01-02T23:10:47.899Z,263.17
2023-01-02T23:13:15.637Z,244.77
2023-01-02T23:15:57.272Z,245.53
2023-01-02T23:18:42.451Z,234.23
2023-01-02T23:21:11.803Z,248.30
2023-01-02T23:23:39.516Z,246.33
2023-01-02T23:26:07.748Z,247.80
2023-01-02T23:31:23.856Z,227.17
2023-01-02T23:33:51.589Z,238.33
2023-01-02T23:36:20.880Z,228.00
2023-01-02T23:38:48.582Z,229.33
2023-01-02T23:41:16.420Z,246.10
2023-01-02T23:43:44.143Z,242.93
2023-01-02T23:46:11.981Z,240.17
2023-01-02T23:48:39.675Z,249.60
2023-01-02T23:51:07.372Z,243.03
2023-01-02T23:53:36.846Z,222.27
2023-01-02T23:56:16.881Z,231.93
2023-01-02T23:58:44.595Z,235.47
